createdAt,value
2018-04-06T00:00:33.281Z,3.85
2018-04-06T00:03:00.232Z,2.92
2018-04-06T00:05:27.224Z,2.40
2018-04-06T00:07:53.450Z,3.00
2018-04-06T00:10:19.735Z,6.95
2018-04-06T00:12:46.724Z,4.10
2018-04-06T00:15:12.953Z,5.25
2018-04-06T00:17:39.188Z,4.03
2018-04-06T00:20:05.440Z,4.10
2018-04-06T00:22:31.653Z,7.00
2018-04-06T00:24:57.877Z,5.65
2018-04-06T00:27:24.112Z,3.47
2018-04-06T00:29:50.346Z,5.60
2018-04-06T00:32:17.640Z,3.75
2018-04-06T00:34:47.536Z,3.83
2018-04-06T00:37:13.812Z,3.78
2018-04-06T00:39:40.067Z,4.10
2018-04-06T00:42:06.291Z,6.07
2018-04-06T00:44:32.478Z,13.95
2018-04-06T00:46:58.721Z,5.05
2018-04-06T00:49:24.950Z,9.00
2018-04-06T00:51:51.181Z,5.12
2018-04-06T00:54:17.435Z,6.10
2018-04-06T00:56:43.652Z,6.82
2018-04-06T00:59:09.871Z,5.37
2018-04-06T01:01:36.046Z,6.53
2018-04-06T01:04:02.247Z,5.87
2018-04-06T01:06:28.459Z,4.47
2018-04-06T01:08:54.649Z,5.25
2018-04-06T01:11:20.827Z,6.35
2018-04-06T01:13:47.036Z,4.57
2018-04-06T01:16:13.262Z,4.62
2018-04-06T01:18:39.450Z,7.65
2018-04-06T01:21:05.665Z,7.40
2018-04-06T01:23:32.245Z,4.15
2018-04-06T01:25:58.496Z,4.65
2018-04-06T01:28:24.694Z,5.80
2018-04-06T01:30:50.934Z,5.03
2018-04-06T01:33:17.161Z,5.22
2018-04-06T01:35:43.378Z,3.30
2018-04-06T01:38:09.584Z,3.60
2018-04-06T01:40:35.786Z,4.60
2018-04-06T01:43:02.012Z,3.25
2018-04-06T01:45:28.368Z,4.00
2018-04-06T01:47:54.652Z,3.28
2018-04-06T01:50:20.881Z,4.00
2018-04-06T01:52:47.096Z,6.57
2018-04-06T01:55:13.318Z,4.20
2018-04-06T01:57:39.536Z,5.07
2018-04-06T02:00:05.756Z,7.32
2018-04-06T02:02:31.971Z,4.75
2018-04-06T02:04:58.221Z,4.93
2018-04-06T02:07:24.453Z,4.75
2018-04-06T02:09:50.644Z,6.50
2018-04-06T02:12:17.601Z,10.63
2018-04-06T02:14:43.977Z,3.42
2018-04-06T02:17:10.170Z,6.72
2018-04-06T02:19:36.399Z,3.78
2018-04-06T02:22:02.608Z,4.43
2018-04-06T02:24:28.867Z,5.82
2018-04-06T02:26:54.996Z,7.45
2018-04-06T02:29:21.254Z,3.55
2018-04-06T02:31:47.795Z,3.92
2018-04-06T02:34:14.021Z,3.65
2018-04-06T02:36:40.233Z,6.72
2018-04-06T02:39:06.491Z,4.00
2018-04-06T02:41:34.308Z,3.67
2018-04-06T02:44:01.494Z,3.67
2018-04-06T02:46:27.724Z,4.65
2018-04-06T02:48:53.958Z,3.65
2018-04-06T02:51:21.116Z,4.05
2018-04-06T02:53:48.444Z,6.93
2018-04-06T02:56:14.922Z,5.00
2018-04-06T02:58:41.135Z,4.60
2018-04-06T03:01:08.094Z,6.00
2018-04-06T03:03:35.123Z,5.90
2018-04-06T03:06:02.095Z,4.95
2018-04-06T03:08:28.320Z,4.00
2018-04-06T03:10:55.308Z,4.87
2018-04-06T03:13:21.559Z,3.90
2018-04-06T03:15:47.874Z,5.10
2018-04-06T03:18:14.082Z,4.30
2018-04-06T03:20:40.298Z,4.45
2018-04-06T03:23:06.541Z,5.10
2018-04-06T03:25:32.824Z,4.70
2018-04-06T03:27:59.762Z,5.80
2018-04-06T03:30:26.754Z,6.85
2018-04-06T03:32:52.971Z,5.78
2018-04-06T03:35:19.261Z,6.18
2018-04-06T03:37:45.493Z,5.78
2018-04-06T03:40:12.463Z,10.35
2018-04-06T03:42:38.666Z,11.15
2018-04-06T03:45:05.706Z,7.18
2018-04-06T03:47:31.932Z,5.15
2018-04-06T03:49:58.144Z,5.82
2018-04-06T03:52:24.379Z,5.32
2018-04-06T03:54:50.639Z,6.70
2018-04-06T03:57:17.598Z,4.75
2018-04-06T03:59:43.844Z,4.50
2018-04-06T04:02:10.046Z,6.22
2018-04-06T04:04:37.052Z,4.32
2018-04-06T04:07:03.292Z,5.22
2018-04-06T04:09:29.509Z,6.20
2018-04-06T04:11:55.748Z,4.80
2018-04-06T04:14:21.930Z,5.68
2018-04-06T04:16:49.228Z,5.43
2018-04-06T04:19:15.729Z,6.65
2018-04-06T04:21:41.938Z,4.72
2018-04-06T04:24:08.241Z,4.78
2018-04-06T04:26:35.200Z,7.68
2018-04-06T04:29:01.612Z,4.87
2018-04-06T04:31:28.554Z,6.12
2018-04-06T04:33:55.497Z,4.90
2018-04-06T04:36:22.518Z,6.10
2018-04-06T04:38:48.808Z,5.30
2018-04-06T04:41:15.023Z,7.55
2018-04-06T04:43:41.229Z,5.57
2018-04-06T04:46:08.209Z,6.80
2018-04-06T04:48:34.422Z,12.65
2018-04-06T04:51:01.369Z,6.37
2018-04-06T04:53:27.576Z,4.80
2018-04-06T04:55:54.515Z,5.90
2018-04-06T04:58:20.809Z,6.80
2018-04-06T05:00:46.993Z,5.90
2018-04-06T05:03:13.978Z,5.35
2018-04-06T05:05:40.217Z,6.32
2018-04-06T05:08:06.458Z,6.03
2018-04-06T05:10:32.726Z,8.93
2018-04-06T05:12:59.691Z,9.50
2018-04-06T05:15:25.910Z,14.68
2018-04-06T05:17:52.156Z,6.10
2018-04-06T05:20:18.354Z,5.97
2018-04-06T05:22:45.303Z,8.60
2018-04-06T05:25:12.358Z,8.18
2018-04-06T05:27:38.531Z,8.35
2018-04-06T05:30:04.730Z,8.18
2018-04-06T05:32:30.939Z,15.05
2018-04-06T05:34:57.150Z,10.02
2018-04-06T05:37:24.110Z,7.93
2018-04-06T05:39:50.336Z,15.13
2018-04-06T05:42:16.577Z,11.15
2018-04-06T05:44:42.786Z,20.70
2018-04-06T05:47:09.720Z,29.80
2018-04-06T05:49:36.650Z,28.55
2018-04-06T05:52:02.846Z,27.45
2018-04-06T05:54:29.061Z,24.75
2018-04-06T05:56:55.258Z,25.12
2018-04-06T05:59:21.516Z,25.17
2018-04-06T06:01:47.758Z,19.70
2018-04-06T06:04:13.974Z,12.55
2018-04-06T06:06:40.192Z,10.38
2018-04-06T06:09:06.417Z,10.15
2018-04-06T06:11:32.625Z,12.75
2018-04-06T06:13:59.614Z,12.75
2018-04-06T06:16:25.857Z,9.95
2018-04-06T06:18:52.102Z,10.25
2018-04-06T06:21:19.121Z,15.25
2018-04-06T06:23:45.365Z,9.85
2018-04-06T06:26:11.650Z,13.82
2018-04-06T06:28:37.896Z,10.35
2018-04-06T06:31:04.103Z,15.23
2018-04-06T06:33:30.350Z,10.73
2018-04-06T06:35:56.616Z,12.93
2018-04-06T06:38:22.859Z,8.75
2018-04-06T06:40:49.071Z,11.48
2018-04-06T06:43:15.385Z,16.23
2018-04-06T06:45:41.584Z,16.73
2018-04-06T06:48:07.826Z,20.37
2018-04-06T06:50:34.143Z,32.47
2018-04-06T06:53:00.356Z,26.95
2018-04-06T06:55:26.618Z,36.33
2018-04-06T06:57:52.876Z,27.08
2018-04-06T07:00:19.151Z,33.75
2018-04-06T07:02:45.394Z,24.30
2018-04-06T07:05:11.616Z,29.10
2018-04-06T07:07:37.882Z,22.55
2018-04-06T07:10:04.120Z,15.60
2018-04-06T07:12:30.353Z,12.77
2018-04-06T07:14:57.327Z,16.33
2018-04-06T07:17:23.585Z,13.20
2018-04-06T07:19:49.836Z,13.68
2018-04-06T07:22:16.027Z,16.15
2018-04-06T07:24:42.296Z,14.25
2018-04-06T07:27:08.485Z,16.30
2018-04-06T07:29:34.688Z,18.20
2018-04-06T07:32:01.814Z,19.65
2018-04-06T07:34:28.778Z,15.27
2018-04-06T07:36:55.002Z,14.05
2018-04-06T07:39:22.145Z,11.52
2018-04-06T07:41:48.461Z,19.15
2018-04-06T07:44:15.458Z,14.18
2018-04-06T07:46:41.587Z,20.35
2018-04-06T07:49:07.769Z,25.23
2018-04-06T07:51:34.036Z,16.70
2018-04-06T07:54:01.107Z,16.98
2018-04-06T07:56:29.526Z,20.92
2018-04-06T07:58:56.514Z,15.23
2018-04-06T08:01:22.845Z,19.13
2018-04-06T08:03:49.314Z,16.08
2018-04-06T08:06:15.649Z,13.93
2018-04-06T08:08:41.863Z,11.70
2018-04-06T08:11:08.142Z,15.83
2018-04-06T08:13:34.327Z,17.00
2018-04-06T08:16:00.582Z,14.10
2018-04-06T08:18:27.129Z,15.90
2018-04-06T08:20:53.624Z,15.33
2018-04-06T08:23:19.860Z,18.73
2018-04-06T08:25:46.128Z,12.17
2018-04-06T08:28:12.369Z,11.03
2018-04-06T08:30:38.596Z,14.40
2018-04-06T08:33:04.824Z,13.93
2018-04-06T08:35:31.077Z,14.00
2018-04-06T08:37:57.339Z,14.80
2018-04-06T08:40:23.579Z,15.10
2018-04-06T08:42:50.517Z,17.37
2018-04-06T08:45:17.494Z,11.10
2018-04-06T08:47:43.725Z,16.97
2018-04-06T08:50:09.931Z,16.47
2018-04-06T08:52:36.914Z,10.03
2018-04-06T08:55:03.179Z,9.83
2018-04-06T08:57:29.368Z,18.83
2018-04-06T08:59:55.610Z,14.37
2018-04-06T09:02:21.795Z,12.77
2018-04-06T09:04:48.050Z,13.57
2018-04-06T09:07:14.225Z,12.47
2018-04-06T09:09:40.412Z,9.20
2018-04-06T09:12:06.640Z,16.43
2018-04-06T09:14:32.868Z,13.40
2018-04-06T09:16:59.087Z,11.03
2018-04-06T09:19:25.332Z,8.17
2018-04-06T09:21:51.536Z,10.70
2018-04-06T09:24:17.762Z,10.43
2018-04-06T09:26:43.974Z,10.63
2018-04-06T09:29:10.329Z,6.57
2018-04-06T09:31:36.561Z,9.93
2018-04-06T09:34:02.758Z,7.70
2018-04-06T09:36:29.042Z,9.17
2018-04-06T09:38:55.243Z,9.87
2018-04-06T09:41:21.448Z,7.87
2018-04-06T09:43:47.668Z,10.90
2018-04-06T09:46:13.863Z,6.50
2018-04-06T09:48:40.085Z,5.03
2018-04-06T09:51:06.318Z,6.50
2018-04-06T09:53:32.550Z,6.37
2018-04-06T09:55:58.777Z,5.20
2018-04-06T09:58:24.977Z,7.37
2018-04-06T10:00:57.268Z,4.20
2018-04-06T10:03:23.460Z,5.17
2018-04-06T10:05:49.681Z,4.73
2018-04-06T10:08:15.957Z,4.47
2018-04-06T10:10:42.196Z,6.40
2018-04-06T10:13:08.402Z,6.33
2018-04-06T10:15:34.661Z,6.97
2018-04-06T10:18:01.617Z,4.70
2018-04-06T10:20:27.850Z,8.20
2018-04-06T10:22:54.072Z,8.50
2018-04-06T10:25:21.726Z,5.20
2018-04-06T10:27:48.677Z,4.97
2018-04-06T10:30:15.645Z,5.20
2018-04-06T10:32:41.838Z,10.03
2018-04-06T10:35:08.161Z,6.90
2018-04-06T10:37:34.415Z,8.63
2018-04-06T10:40:00.668Z,6.57
2018-04-06T10:42:26.876Z,4.63
2018-04-06T10:44:53.087Z,3.87
2018-04-06T10:47:20.012Z,6.43
2018-04-06T10:49:46.216Z,4.03
2018-04-06T10:52:12.394Z,4.00
2018-04-06T10:54:38.874Z,10.23
2018-04-06T10:57:05.237Z,6.13
2018-04-06T10:59:32.294Z,4.53
2018-04-06T11:01:58.562Z,3.70
2018-04-06T11:04:24.790Z,3.67
2018-04-06T11:06:51.045Z,3.73
2018-04-06T11:09:17.325Z,6.13
2018-04-06T11:11:43.587Z,3.87
2018-04-06T11:14:09.892Z,4.37
2018-04-06T11:16:36.160Z,3.20
2018-04-06T11:19:02.328Z,5.30
2018-04-06T11:21:28.496Z,2.70
2018-04-06T11:23:54.693Z,3.20
2018-04-06T11:26:21.642Z,4.37
2018-04-06T11:28:47.872Z,3.80
2018-04-06T11:31:14.084Z,4.40
2018-04-06T11:33:41.012Z,4.53
2018-04-06T11:36:07.213Z,3.07
2018-04-06T11:38:33.456Z,2.17
2018-04-06T11:40:59.666Z,2.90
2018-04-06T11:43:25.878Z,2.17
2018-04-06T11:45:52.089Z,3.80
2018-04-06T11:48:18.309Z,5.20
2018-04-06T11:50:44.514Z,3.73
2018-04-06T11:53:11.454Z,2.90
2018-04-06T11:55:37.665Z,2.90
2018-04-06T11:58:03.880Z,4.70
2018-04-06T12:00:30.145Z,4.63
2018-04-06T12:02:57.076Z,11.73
2018-04-06T12:05:23.351Z,2.50
2018-04-06T12:07:49.551Z,2.70
2018-04-06T12:10:16.491Z,6.57
2018-04-06T12:12:42.736Z,2.23
2018-04-06T12:15:09.694Z,8.83
2018-04-06T12:17:35.899Z,6.03
2018-04-06T12:20:02.852Z,5.53
2018-04-06T12:22:29.779Z,3.60
2018-04-06T12:24:55.980Z,3.53
2018-04-06T12:27:22.191Z,4.50
2018-04-06T12:29:48.396Z,4.93
2018-04-06T12:32:14.623Z,5.67
2018-04-06T12:34:40.834Z,7.30
2018-04-06T12:37:11.673Z,5.53
2018-04-06T12:39:37.883Z,7.43
2018-04-06T12:42:04.086Z,6.87
2018-04-06T12:44:30.318Z,6.10
2018-04-06T12:46:56.548Z,5.70
2018-04-06T12:49:22.721Z,8.23
2018-04-06T12:51:48.917Z,7.33
2018-04-06T12:54:15.180Z,8.80
2018-04-06T12:56:41.429Z,11.63
2018-04-06T12:59:07.698Z,6.90
2018-04-06T13:01:34.292Z,4.10
2018-04-06T13:04:00.508Z,4.43
2018-04-06T13:06:26.731Z,4.30
2018-04-06T13:08:52.917Z,8.90
2018-04-06T13:11:19.149Z,5.13
2018-04-06T13:13:45.377Z,5.80
2018-04-06T13:16:11.589Z,7.73
2018-04-06T13:18:37.784Z,6.20
2018-04-06T13:21:03.968Z,6.60
2018-04-06T13:23:30.897Z,3.93
2018-04-06T13:25:57.103Z,7.83
2018-04-06T13:28:23.290Z,3.97
2018-04-06T13:30:49.519Z,3.40
2018-04-06T13:33:15.704Z,7.30
2018-04-06T13:35:41.875Z,3.17
2018-04-06T13:38:08.105Z,3.40
2018-04-06T13:40:34.325Z,3.33
2018-04-06T13:43:00.502Z,4.47
2018-04-06T13:45:26.658Z,4.90
2018-04-06T13:47:53.630Z,3.67
2018-04-06T13:50:19.812Z,6.30
2018-04-06T13:52:45.997Z,5.90
2018-04-06T13:55:12.262Z,3.63
2018-04-06T13:57:38.476Z,8.80
2018-04-06T14:00:04.712Z,6.73
2018-04-06T14:02:30.905Z,4.57
2018-04-06T14:04:57.130Z,3.80
2018-04-06T14:07:23.299Z,3.67
2018-04-06T14:09:51.527Z,4.10
2018-04-06T14:12:17.709Z,3.63
2018-04-06T14:14:43.961Z,7.30
2018-04-06T14:17:10.923Z,3.57
2018-04-06T14:19:37.148Z,5.60
2018-04-06T14:22:03.344Z,2.93
2018-04-06T14:24:29.579Z,3.47
2018-04-06T14:26:55.780Z,3.00
2018-04-06T14:29:22.003Z,4.43
2018-04-06T14:31:48.182Z,6.47
2018-04-06T14:34:14.394Z,3.70
2018-04-06T14:36:41.532Z,3.60
2018-04-06T14:39:08.464Z,3.20
2018-04-06T14:41:34.655Z,6.80
2018-04-06T14:44:00.860Z,5.43
2018-04-06T14:46:27.056Z,3.60
2018-04-06T14:48:53.272Z,7.23
2018-04-06T14:51:19.504Z,3.13
2018-04-06T14:53:45.724Z,2.97
2018-04-06T14:56:11.909Z,6.90
2018-04-06T14:58:38.119Z,4.00
2018-04-06T15:01:04.330Z,4.70
2018-04-06T15:03:31.266Z,4.77
2018-04-06T15:06:00.656Z,4.63
2018-04-06T15:08:26.870Z,3.07
2018-04-06T15:10:53.054Z,2.77
2018-04-06T15:13:19.243Z,3.17
2018-04-06T15:15:45.459Z,2.37
2018-04-06T15:18:12.702Z,2.90
2018-04-06T15:20:38.938Z,7.63
2018-04-06T15:23:05.104Z,4.93
2018-04-06T15:25:32.047Z,12.23
2018-04-06T15:27:59.018Z,3.00
2018-04-06T15:30:25.206Z,3.93
2018-04-06T15:32:52.145Z,3.83
2018-04-06T15:35:18.352Z,3.15
2018-04-06T15:37:44.515Z,5.00
2018-04-06T15:40:10.768Z,2.37
2018-04-06T15:42:37.053Z,5.63
2018-04-06T15:45:03.310Z,4.73
2018-04-06T15:47:29.517Z,2.63
2018-04-06T15:49:55.766Z,6.13
2018-04-06T15:52:21.972Z,4.00
2018-04-06T15:54:48.264Z,2.47
2018-04-06T15:57:14.425Z,4.23
2018-04-06T15:59:40.676Z,15.23
2018-04-06T16:02:07.609Z,4.97
2018-04-06T16:04:34.584Z,3.23
2018-04-06T16:07:00.832Z,3.00
2018-04-06T16:09:27.089Z,3.10
2018-04-06T16:11:53.287Z,3.63
2018-04-06T16:14:19.571Z,2.50
2018-04-06T16:16:46.533Z,4.27
2018-04-06T16:19:12.762Z,4.70
2018-04-06T16:21:38.970Z,4.97
2018-04-06T16:24:05.993Z,2.90
2018-04-06T16:26:32.194Z,5.67
2018-04-06T16:28:58.386Z,2.50
2018-04-06T16:31:24.618Z,3.27
2018-04-06T16:33:50.804Z,6.10
2018-04-06T16:36:17.032Z,2.00
2018-04-06T16:38:43.215Z,2.17
2018-04-06T16:41:09.458Z,2.57
2018-04-06T16:43:35.658Z,2.60
2018-04-06T16:46:01.864Z,1.77
2018-04-06T16:48:28.796Z,1.83
2018-04-06T16:50:54.991Z,3.93
2018-04-06T16:53:21.193Z,2.43
2018-04-06T16:55:47.437Z,2.10
2018-04-06T16:58:13.653Z,2.20
2018-04-06T17:00:39.876Z,2.23
2018-04-06T17:03:06.088Z,3.77
2018-04-06T17:05:32.265Z,1.90
2018-04-06T17:07:58.489Z,6.70
2018-04-06T17:10:24.766Z,3.30
2018-04-06T17:12:51.758Z,4.80
2018-04-06T17:15:17.952Z,2.23
2018-04-06T17:17:44.128Z,3.03
2018-04-06T17:20:10.385Z,2.80
2018-04-06T17:22:37.358Z,6.20
2018-04-06T17:25:03.570Z,5.23
2018-04-06T17:27:30.541Z,2.23
2018-04-06T17:29:56.751Z,2.30
2018-04-06T17:32:22.939Z,3.53
2018-04-06T17:34:49.140Z,2.40
2018-04-06T17:37:15.372Z,2.70
2018-04-06T17:39:41.612Z,4.70
2018-04-06T17:42:07.845Z,5.60
2018-04-06T17:44:34.044Z,6.00
2018-04-06T17:47:00.265Z,3.40
2018-04-06T17:49:27.065Z,4.77
2018-04-06T17:51:54.021Z,4.93
2018-04-06T17:54:20.961Z,3.43
2018-04-06T17:56:47.157Z,4.97
2018-04-06T17:59:13.406Z,9.07
2018-04-06T18:01:39.628Z,12.30
2018-04-06T18:04:05.862Z,17.57
2018-04-06T18:06:32.075Z,12.60
2018-04-06T18:08:58.299Z,9.57
2018-04-06T18:11:24.465Z,9.20
2018-04-06T18:13:51.413Z,3.60
2018-04-06T18:16:18.394Z,3.10
2018-04-06T18:18:44.634Z,3.77
2018-04-06T18:21:10.804Z,6.63
2018-04-06T18:23:37.720Z,5.33
2018-04-06T18:26:03.967Z,8.30
2018-04-06T18:28:30.238Z,8.67
2018-04-06T18:30:56.455Z,6.17
2018-04-06T18:33:22.625Z,5.80
2018-04-06T18:35:49.049Z,3.73
2018-04-06T18:38:15.285Z,6.00
2018-04-06T18:40:41.535Z,2.87
2018-04-06T18:43:07.764Z,8.10
2018-04-06T18:45:34.088Z,3.57
2018-04-06T18:48:00.256Z,5.50
2018-04-06T18:50:26.465Z,5.70
2018-04-06T18:52:53.467Z,2.70
2018-04-06T18:55:19.704Z,11.93
2018-04-06T18:57:45.914Z,3.40
2018-04-06T19:00:12.173Z,2.63
2018-04-06T19:02:38.451Z,7.33
2018-04-06T19:05:04.692Z,3.50
2018-04-06T19:07:30.933Z,2.33
2018-04-06T19:09:57.152Z,4.93
2018-04-06T19:12:23.416Z,2.50
2018-04-06T19:14:49.599Z,2.40
2018-04-06T19:17:15.742Z,3.10
2018-04-06T19:19:42.016Z,4.40
2018-04-06T19:22:08.290Z,8.40
2018-04-06T19:24:34.667Z,11.10
2018-04-06T19:27:01.609Z,5.63
2018-04-06T19:29:27.780Z,9.77
2018-04-06T19:31:54.090Z,9.90
2018-04-06T19:34:20.386Z,12.40
2018-04-06T19:36:47.300Z,12.10
2018-04-06T19:39:13.524Z,16.37
2018-04-06T19:41:39.720Z,12.00
2018-04-06T19:44:05.952Z,14.40
2018-04-06T19:46:32.160Z,10.50
2018-04-06T19:48:59.108Z,13.57
2018-04-06T19:51:26.071Z,5.77
2018-04-06T19:53:52.294Z,5.97
2018-04-06T19:56:18.443Z,7.50
2018-04-06T19:58:44.638Z,14.33
2018-04-06T20:01:11.642Z,11.97
2018-04-06T20:03:38.841Z,12.10
2018-04-06T20:06:06.332Z,13.30
2018-04-06T20:08:32.547Z,12.60
2018-04-06T20:10:58.780Z,11.63
2018-04-06T20:13:24.952Z,11.93
2018-04-06T20:15:51.141Z,12.90
2018-04-06T20:18:17.454Z,7.77
2018-04-06T20:20:43.736Z,14.60
2018-04-06T20:23:09.924Z,13.57
2018-04-06T20:25:36.130Z,9.00
2018-04-06T20:28:02.332Z,10.00
2018-04-06T20:30:29.292Z,9.80
2018-04-06T20:32:56.212Z,11.80
2018-04-06T20:35:22.461Z,11.27
2018-04-06T20:37:49.412Z,11.07
2018-04-06T20:40:15.620Z,8.00
2018-04-06T20:42:41.841Z,9.43
2018-04-06T20:45:08.034Z,10.20
2018-04-06T20:47:34.257Z,11.03
2018-04-06T20:50:00.484Z,8.27
2018-04-06T20:52:26.710Z,16.63
2018-04-06T20:54:52.944Z,12.63
2018-04-06T20:57:19.131Z,10.23
2018-04-06T20:59:45.442Z,13.00
2018-04-06T21:02:11.683Z,10.90
2018-04-06T21:04:38.652Z,9.73
2018-04-06T21:07:04.916Z,8.40
2018-04-06T21:09:31.121Z,6.40
2018-04-06T21:11:57.303Z,10.67
2018-04-06T21:14:24.394Z,5.90
2018-04-06T21:16:51.311Z,4.83
2018-04-06T21:19:18.393Z,4.93
2018-04-06T21:21:44.588Z,4.27
2018-04-06T21:24:10.801Z,5.70
2018-04-06T21:26:37.780Z,7.97
2018-04-06T21:29:04.025Z,5.30
2018-04-06T21:31:30.409Z,4.53
2018-04-06T21:33:57.522Z,8.30
2018-04-06T21:36:23.764Z,8.83
2018-04-06T21:38:49.924Z,21.43
2018-04-06T21:41:16.142Z,13.70
2018-04-06T21:43:43.176Z,17.97
2018-04-06T21:46:09.445Z,11.63
2018-04-06T21:48:35.645Z,10.73
2018-04-06T21:51:01.791Z,12.73
2018-04-06T21:53:28.078Z,9.07
2018-04-06T21:55:54.326Z,9.60
2018-04-06T21:58:20.539Z,12.67
2018-04-06T22:00:46.786Z,12.20
2018-04-06T22:03:13.793Z,13.50
2018-04-06T22:05:40.006Z,13.50
2018-04-06T22:08:06.236Z,11.33
2018-04-06T22:10:32.469Z,12.23
2018-04-06T22:12:58.681Z,16.70
2018-04-06T22:15:24.898Z,19.70
2018-04-06T22:17:51.108Z,17.13
2018-04-06T22:20:18.061Z,14.93
2018-04-06T22:22:44.304Z,10.60
2018-04-06T22:25:10.562Z,11.17
2018-04-06T22:27:36.834Z,12.20
2018-04-06T22:30:03.107Z,16.43
2018-04-06T22:32:29.358Z,12.60
2018-04-06T22:34:55.600Z,6.87
2018-04-06T22:37:21.825Z,9.10
2018-04-06T22:39:48.102Z,7.90
2018-04-06T22:42:14.341Z,9.03
2018-04-06T22:44:40.555Z,9.70
2018-04-06T22:47:06.767Z,6.87
2018-04-06T22:49:32.989Z,4.63
2018-04-06T22:51:59.935Z,5.83
2018-04-06T22:54:26.875Z,6.13
2018-04-06T22:56:53.882Z,5.90
2018-04-06T22:59:20.105Z,5.83
2018-04-06T23:01:46.369Z,4.60
2018-04-06T23:04:13.326Z,5.10
2018-04-06T23:06:40.309Z,6.30
2018-04-06T23:09:06.522Z,3.93
2018-04-06T23:11:32.780Z,4.40
2018-04-06T23:13:59.011Z,4.20
2018-04-06T23:16:25.188Z,3.83
2018-04-06T23:18:52.141Z,4.97
2018-04-06T23:21:18.350Z,6.20
2018-04-06T23:23:45.299Z,4.63
2018-04-06T23:26:11.537Z,4.27
2018-04-06T23:28:37.762Z,6.20
2018-04-06T23:31:04.724Z,6.20
2018-04-06T23:33:30.982Z,5.70
2018-04-06T23:35:57.169Z,4.63
2018-04-06T23:38:23.419Z,6.53
2018-04-06T23:40:50.353Z,3.60
2018-04-06T23:43:16.613Z,7.40
2018-04-06T23:45:42.827Z,2.90
2018-04-06T23:48:09.069Z,3.73
2018-04-06T23:50:35.347Z,8.83
2018-04-06T23:53:01.593Z,2.57
2018-04-06T23:55:27.840Z,9.83
2018-04-06T23:57:54.093Z,3.33
